createdAt,value
2023-03-22T00:00:17.761Z,9.90
2023-03-22T00:02:48.117Z,10.00
2023-03-22T00:05:17.033Z,10.00
2023-03-22T00:07:45.790Z,10.00
2023-03-22T00:10:14.512Z,10.00
2023-03-22T00:12:43.260Z,9.90
2023-03-22T00:15:12.907Z,9.90
2023-03-22T00:17:42.263Z,9.90
2023-03-22T00:20:13.779Z,9.90
2023-03-22T00:22:42.569Z,9.90
2023-03-22T00:25:11.869Z,9.80
2023-03-22T00:27:40.638Z,9.70
2023-03-22T00:30:10.909Z,9.80
2023-03-22T00:32:40.164Z,9.70
2023-03-22T00:35:09.655Z,9.70
2023-03-22T00:37:40.134Z,9.60
2023-03-22T00:40:12.534Z,9.50
2023-03-22T00:42:42.699Z,9.50
2023-03-22T00:45:13.459Z,9.60
2023-03-22T00:47:42.349Z,9.60
2023-03-22T00:50:11.907Z,9.50
2023-03-22T00:52:42.102Z,9.60
2023-03-22T00:55:11.061Z,9.60
2023-03-22T00:57:39.762Z,9.60
2023-03-22T01:00:13.630Z,9.70
2023-03-22T01:02:42.793Z,9.70
2023-03-22T01:05:15.904Z,9.70
2023-03-22T01:07:46.335Z,9.80
2023-03-22T01:10:15.099Z,9.70
2023-03-22T01:12:43.774Z,9.80
2023-03-22T01:15:13.247Z,9.80
2023-03-22T01:17:42.109Z,9.80
2023-03-22T01:20:12.139Z,9.90
2023-03-22T01:22:41.955Z,9.80
2023-03-22T01:25:12.329Z,9.80
2023-03-22T01:27:41.179Z,9.80
2023-03-22T01:30:11.025Z,9.80
2023-03-22T01:32:40.141Z,9.80
2023-03-22T01:35:09.327Z,9.90
2023-03-22T01:37:38.103Z,9.80
2023-03-22T01:40:08.478Z,9.80
2023-03-22T01:42:38.617Z,9.90
2023-03-22T01:45:38.858Z,9.80
2023-03-22T01:48:13.964Z,9.90
2023-03-22T01:50:46.903Z,9.90
2023-03-22T01:53:19.006Z,9.80
2023-03-22T01:55:48.509Z,9.80
2023-03-22T01:58:19.279Z,9.80
2023-03-22T02:00:49.534Z,9.90
2023-03-22T02:03:23.774Z,9.80
2023-03-22T02:05:53.144Z,9.90
2023-03-22T02:08:21.981Z,9.90
2023-03-22T02:10:50.774Z,9.90
2023-03-22T02:13:39.146Z,9.90
2023-03-22T02:16:20.015Z,9.90
2023-03-22T02:19:04.054Z,9.80
2023-03-22T02:22:06.750Z,9.90
2023-03-22T02:25:14.072Z,9.80
2023-03-22T02:28:15.888Z,9.80
2023-03-22T02:31:23.744Z,9.80
2023-03-22T02:34:17.016Z,9.80
2023-03-22T02:37:08.974Z,9.90
2023-03-22T02:39:43.701Z,10.00
2023-03-22T02:42:25.050Z,10.10
2023-03-22T02:45:03.050Z,10.10
2023-03-22T02:47:40.965Z,10.10
2023-03-22T02:50:15.672Z,10.10
2023-03-22T02:52:48.644Z,10.10
2023-03-22T02:55:23.401Z,10.10
2023-03-22T02:57:57.651Z,10.00
2023-03-22T03:00:28.251Z,10.00
2023-03-22T03:03:01.385Z,9.90
2023-03-22T03:05:34.242Z,10.00
2023-03-22T03:08:04.304Z,9.90
2023-03-22T03:10:35.913Z,9.80
2023-03-22T03:13:04.620Z,9.90
2023-03-22T03:15:33.829Z,9.90
2023-03-22T03:18:22.809Z,9.90
2023-03-22T03:21:02.558Z,9.80
2023-03-22T03:23:40.379Z,9.80
2023-03-22T03:26:15.816Z,9.80
2023-03-22T03:28:52.858Z,9.90
2023-03-22T03:31:31.838Z,10.00
2023-03-22T03:34:09.229Z,10.10
2023-03-22T03:36:41.993Z,10.10
2023-03-22T03:39:14.324Z,10.20
2023-03-22T03:41:47.342Z,10.20
2023-03-22T03:44:17.984Z,10.10
2023-03-22T03:46:48.051Z,10.20
2023-03-22T03:49:18.560Z,10.20
2023-03-22T03:51:49.991Z,10.20
2023-03-22T03:54:18.765Z,10.20
2023-03-22T03:56:49.568Z,10.20
2023-03-22T03:59:19.493Z,10.30
2023-03-22T04:01:52.532Z,10.40
2023-03-22T04:04:26.935Z,10.40
2023-03-22T04:06:58.018Z,10.50
2023-03-22T04:09:28.336Z,10.60
2023-03-22T04:11:59.336Z,10.60
2023-03-22T04:14:28.941Z,10.70
2023-03-22T04:16:58.010Z,10.70
2023-03-22T04:19:26.905Z,10.80
2023-03-22T04:21:55.723Z,10.80
2023-03-22T04:24:24.470Z,10.80
2023-03-22T04:26:53.800Z,10.80
2023-03-22T04:29:24.751Z,10.70
2023-03-22T04:31:54.433Z,10.70
2023-03-22T04:34:23.160Z,10.60
2023-03-22T04:36:51.858Z,10.60
2023-03-22T04:39:20.589Z,10.50
2023-03-22T04:41:49.325Z,10.40
2023-03-22T04:44:18.078Z,10.40
2023-03-22T04:46:48.219Z,10.30
2023-03-22T04:49:17.171Z,10.20
2023-03-22T04:51:45.983Z,10.20
2023-03-22T04:54:14.691Z,10.20
2023-03-22T04:56:43.392Z,10.20
2023-03-22T04:59:12.256Z,10.20
2023-03-22T05:01:42.802Z,10.20
2023-03-22T05:04:13.157Z,10.00
2023-03-22T05:06:41.941Z,9.90
2023-03-22T05:09:11.202Z,9.90
2023-03-22T05:11:40.890Z,9.90
2023-03-22T05:14:10.241Z,9.90
2023-03-22T05:16:40.805Z,9.90
2023-03-22T05:19:14.171Z,10.10
2023-03-22T05:21:45.382Z,10.20
2023-03-22T05:24:14.257Z,10.10
2023-03-22T05:26:43.202Z,10.20
2023-03-22T05:29:12.489Z,10.20
2023-03-22T05:31:41.504Z,10.20
2023-03-22T05:34:10.284Z,10.30
2023-03-22T05:36:39.027Z,10.30
2023-03-22T05:39:09.517Z,10.40
2023-03-22T05:41:38.234Z,10.40
2023-03-22T05:44:07.328Z,10.40
2023-03-22T05:46:36.253Z,10.40
2023-03-22T05:49:05.019Z,10.30
2023-03-22T05:51:34.229Z,10.40
2023-03-22T05:54:03.023Z,10.40
2023-03-22T05:56:33.577Z,10.40
2023-03-22T05:59:02.357Z,10.50
2023-03-22T06:01:31.125Z,10.50
2023-03-22T06:04:06.094Z,10.60
2023-03-22T06:06:34.755Z,10.50
2023-03-22T06:09:16.531Z,10.50
2023-03-22T06:11:47.549Z,10.50
2023-03-22T06:14:16.317Z,10.60
2023-03-22T06:16:45.137Z,10.50
2023-03-22T06:19:13.947Z,10.50
2023-03-22T06:21:42.713Z,10.50
2023-03-22T06:24:11.868Z,10.70
2023-03-22T06:26:41.449Z,10.80
2023-03-22T06:29:11.711Z,11.00
2023-03-22T06:31:42.837Z,11.20
2023-03-22T06:34:11.457Z,11.50
2023-03-22T06:36:41.227Z,11.70
2023-03-22T06:39:10.414Z,12.00
2023-03-22T06:41:39.110Z,12.10
2023-03-22T06:44:07.862Z,12.10
2023-03-22T06:46:38.232Z,12.20
2023-03-22T06:49:08.191Z,12.40
2023-03-22T06:51:37.245Z,12.70
2023-03-22T06:54:06.228Z,13.00
2023-03-22T06:56:34.923Z,13.40
2023-03-22T06:59:04.423Z,13.50
2023-03-22T07:01:33.269Z,13.60
2023-03-22T07:04:04.178Z,13.90
2023-03-22T07:06:33.366Z,14.10
2023-03-22T07:09:02.490Z,14.00
2023-03-22T07:11:31.293Z,14.20
2023-03-22T07:13:59.997Z,14.30
2023-03-22T07:16:28.851Z,14.40
2023-03-22T07:18:57.922Z,14.70
2023-03-22T07:21:28.396Z,14.90
2023-03-22T07:23:58.497Z,15.50
2023-03-22T07:26:27.701Z,15.70
2023-03-22T07:28:57.140Z,15.80
2023-03-22T07:31:26.067Z,15.90
2023-03-22T07:33:54.837Z,15.90
2023-03-22T07:36:26.267Z,16.10
2023-03-22T07:38:56.810Z,16.40
2023-03-22T07:41:27.490Z,17.00
2023-03-22T07:44:07.885Z,17.20
2023-03-22T07:46:46.983Z,17.40
2023-03-22T07:49:20.563Z,17.30
2023-03-22T07:51:49.295Z,17.30
2023-03-22T07:54:33.565Z,17.30
2023-03-22T07:57:07.617Z,17.40
2023-03-22T07:59:40.281Z,17.90
2023-03-22T08:02:17.096Z,18.50
2023-03-22T08:04:53.889Z,18.90
2023-03-22T08:07:25.538Z,19.40
2023-03-22T08:09:56.828Z,19.30
2023-03-22T08:12:28.341Z,19.20
2023-03-22T08:14:57.357Z,19.40
2023-03-22T08:17:26.502Z,19.50
2023-03-22T08:19:56.411Z,19.60
2023-03-22T08:22:26.172Z,19.50
2023-03-22T08:24:56.430Z,18.90
2023-03-22T08:27:25.171Z,19.20
2023-03-22T08:29:53.991Z,19.30
2023-03-22T08:32:22.840Z,19.50
2023-03-22T08:34:51.649Z,19.60
2023-03-22T08:37:21.198Z,19.80
2023-03-22T08:39:49.971Z,20.70
2023-03-22T08:42:20.122Z,21.10
2023-03-22T08:44:49.481Z,21.80
2023-03-22T08:47:18.151Z,22.10
2023-03-22T08:49:46.957Z,22.10
2023-03-22T08:52:15.758Z,22.30
2023-03-22T08:54:44.559Z,22.40
2023-03-22T08:57:14.648Z,22.10
2023-03-22T08:59:44.898Z,22.40
2023-03-22T09:02:13.796Z,22.70
2023-03-22T09:04:43.025Z,22.50
2023-03-22T09:07:12.118Z,22.60
2023-03-22T09:09:42.243Z,23.10
2023-03-22T09:12:11.675Z,24.30
2023-03-22T09:14:40.567Z,25.00
2023-03-22T09:17:11.114Z,25.40
2023-03-22T09:19:40.069Z,26.10
2023-03-22T09:22:08.988Z,27.00
2023-03-22T09:24:39.369Z,28.00
2023-03-22T09:27:08.506Z,28.20
2023-03-22T09:29:37.527Z,27.90
2023-03-22T09:32:06.836Z,28.10
2023-03-22T09:34:37.320Z,28.90
2023-03-22T09:37:06.542Z,29.50
2023-03-22T09:39:38.643Z,29.30
2023-03-22T09:42:14.660Z,28.70
2023-03-22T09:44:46.527Z,28.10
2023-03-22T09:47:18.892Z,27.20
2023-03-22T09:49:54.099Z,26.40
2023-03-22T09:52:23.990Z,26.00
2023-03-22T09:54:53.418Z,25.50
2023-03-22T09:57:28.297Z,24.70
2023-03-22T10:00:11.408Z,24.70
2023-03-22T10:02:53.903Z,24.80
2023-03-22T10:05:33.536Z,25.00
2023-03-22T10:08:17.935Z,25.00
2023-03-22T10:10:47.030Z,24.20
2023-03-22T10:13:23.237Z,24.40
2023-03-22T10:15:54.641Z,24.60
2023-03-22T10:18:27.545Z,24.80
2023-03-22T10:21:02.140Z,25.70
2023-03-22T10:23:36.965Z,26.40
2023-03-22T10:26:08.095Z,26.70
2023-03-22T10:28:41.004Z,27.30
2023-03-22T10:31:17.751Z,28.00
2023-03-22T10:33:54.012Z,28.20
2023-03-22T10:36:27.926Z,27.90
2023-03-22T10:38:59.308Z,28.10
2023-03-22T10:41:31.035Z,27.30
2023-03-22T10:44:04.387Z,27.00
2023-03-22T10:46:38.598Z,26.70
2023-03-22T10:49:10.086Z,26.50
2023-03-22T10:51:44.964Z,26.20
2023-03-22T10:54:16.872Z,25.50
2023-03-22T10:56:47.757Z,25.20
2023-03-22T10:59:46.168Z,25.20
2023-03-22T11:02:31.614Z,26.00
2023-03-22T11:05:02.738Z,27.20
2023-03-22T11:07:35.595Z,27.10
2023-03-22T11:10:30.303Z,26.40
2023-03-22T11:13:35.183Z,26.00
2023-03-22T11:16:06.059Z,25.80
2023-03-22T11:18:36.873Z,25.90
2023-03-22T11:21:09.144Z,26.00
2023-03-22T11:23:42.825Z,25.30
2023-03-22T11:26:13.695Z,24.90
2023-03-22T11:28:47.948Z,24.90
2023-03-22T11:31:18.885Z,25.10
2023-03-22T11:33:58.294Z,25.70
2023-03-22T11:36:28.722Z,26.10
2023-03-22T11:39:03.517Z,26.30
2023-03-22T11:41:37.813Z,26.00
2023-03-22T11:44:10.090Z,25.90
2023-03-22T11:46:41.552Z,25.50
2023-03-22T11:49:16.228Z,25.50
2023-03-22T11:51:57.134Z,25.50
2023-03-22T11:54:32.890Z,25.70
2023-03-22T11:57:05.293Z,25.40
2023-03-22T11:59:40.290Z,25.00
2023-03-22T12:02:19.941Z,25.10
2023-03-22T12:04:52.003Z,24.80
2023-03-22T12:07:24.808Z,24.60
2023-03-22T12:10:19.017Z,24.60
2023-03-22T12:13:11.030Z,24.60
2023-03-22T12:15:48.748Z,24.60
2023-03-22T12:18:24.620Z,24.80
2023-03-22T12:20:57.492Z,25.00
2023-03-22T12:23:28.835Z,24.80
2023-03-22T12:26:04.085Z,24.90
2023-03-22T12:28:36.634Z,24.70
2023-03-22T12:31:08.213Z,24.50
2023-03-22T12:33:43.388Z,24.50
2023-03-22T12:36:17.685Z,23.80
2023-03-22T12:38:51.364Z,23.50
2023-03-22T12:41:28.654Z,23.60
2023-03-22T12:44:00.318Z,23.80
2023-03-22T12:46:33.206Z,23.60
2023-03-22T12:49:07.424Z,23.60
2023-03-22T12:51:36.912Z,23.80
2023-03-22T12:54:06.612Z,24.40
2023-03-22T12:56:41.350Z,24.90
2023-03-22T12:59:18.621Z,25.60
2023-03-22T13:01:52.424Z,26.20
2023-03-22T13:04:52.847Z,25.80
2023-03-22T13:07:41.372Z,24.80
2023-03-22T13:10:52.936Z,24.10
2023-03-22T13:13:56.205Z,24.20
2023-03-22T13:16:42.456Z,25.20
2023-03-22T13:19:34.772Z,25.70
2023-03-22T13:22:21.486Z,26.00
2023-03-22T13:25:29.311Z,25.60
2023-03-22T13:27:59.867Z,25.20
2023-03-22T13:30:34.978Z,24.70
2023-03-22T13:33:16.004Z,23.70
2023-03-22T13:35:48.996Z,23.50
2023-03-22T13:38:23.256Z,23.50
2023-03-22T13:40:58.031Z,23.30
2023-03-22T13:43:30.610Z,23.10
2023-03-22T13:46:30.984Z,22.80
2023-03-22T13:49:26.682Z,22.40
2023-03-22T13:51:57.519Z,22.10
2023-03-22T13:54:36.060Z,22.10
2023-03-22T13:57:04.916Z,22.10
2023-03-22T14:00:10.473Z,22.50
2023-03-22T14:02:44.582Z,22.90
2023-03-22T14:05:18.088Z,23.20
2023-03-22T14:07:51.594Z,23.10
2023-03-22T14:10:25.567Z,23.00
2023-03-22T14:12:59.620Z,22.70
2023-03-22T14:15:32.947Z,22.70
2023-03-22T14:18:09.823Z,22.80
2023-03-22T14:20:43.784Z,23.00
